createdAt,value
2018-05-07T00:00:39.561Z,17.30
2018-05-07T00:03:05.918Z,17.20
2018-05-07T00:05:32.989Z,17.20
2018-05-07T00:07:59.355Z,17.10
2018-05-07T00:10:25.757Z,17.10
2018-05-07T00:12:52.961Z,17.00
2018-05-07T00:15:19.285Z,16.90
2018-05-07T00:17:45.617Z,16.90
2018-05-07T00:20:11.937Z,16.90
2018-05-07T00:22:38.916Z,16.80
2018-05-07T00:25:05.270Z,16.80
2018-05-07T00:27:31.719Z,16.70
2018-05-07T00:29:58.869Z,16.70
2018-05-07T00:32:25.965Z,16.60
2018-05-07T00:34:52.422Z,16.60
2018-05-07T00:37:18.821Z,16.60
2018-05-07T00:39:45.209Z,16.50
2018-05-07T00:42:12.307Z,16.50
2018-05-07T00:44:38.726Z,16.50
2018-05-07T00:47:05.049Z,16.40
2018-05-07T00:49:31.397Z,16.40
2018-05-07T00:51:57.717Z,16.30
2018-05-07T00:54:24.974Z,16.30
2018-05-07T00:56:51.701Z,16.20
2018-05-07T00:59:18.023Z,16.30
2018-05-07T01:01:44.842Z,16.20
2018-05-07T01:04:11.464Z,16.10
2018-05-07T01:06:37.814Z,16.10
2018-05-07T01:09:04.245Z,16.10
2018-05-07T01:11:30.667Z,16.10
2018-05-07T01:13:57.237Z,16.00
2018-05-07T01:16:24.337Z,16.00
2018-05-07T01:18:50.724Z,16.00
2018-05-07T01:21:17.090Z,16.00
2018-05-07T01:23:43.669Z,15.90
2018-05-07T01:26:11.008Z,15.90
2018-05-07T01:28:37.362Z,15.90
2018-05-07T01:31:04.018Z,15.90
2018-05-07T01:33:30.457Z,15.80
2018-05-07T01:35:56.842Z,15.80
2018-05-07T01:38:23.330Z,15.70
2018-05-07T01:40:49.704Z,15.90
2018-05-07T01:43:16.276Z,15.60
2018-05-07T01:45:42.646Z,15.60
2018-05-07T01:48:08.981Z,15.50
2018-05-07T01:50:35.323Z,15.50
2018-05-07T01:53:02.429Z,15.30
2018-05-07T01:55:28.745Z,15.30
2018-05-07T01:57:55.173Z,15.20
2018-05-07T02:00:21.534Z,15.20
2018-05-07T02:02:48.191Z,15.30
2018-05-07T02:05:14.531Z,15.30
2018-05-07T02:07:40.861Z,15.30
2018-05-07T02:10:07.193Z,15.20
2018-05-07T02:12:33.528Z,15.20
2018-05-07T02:14:59.862Z,15.10
2018-05-07T02:17:26.189Z,15.10
2018-05-07T02:19:52.525Z,15.10
2018-05-07T02:22:18.857Z,15.10
2018-05-07T02:24:45.245Z,15.10
2018-05-07T02:27:11.573Z,15.10
2018-05-07T02:29:37.938Z,15.10
2018-05-07T02:32:04.318Z,15.20
2018-05-07T02:34:31.669Z,15.50
2018-05-07T02:36:58.737Z,15.30
2018-05-07T02:39:25.182Z,15.30
2018-05-07T02:41:51.702Z,15.20
2018-05-07T02:44:18.103Z,15.00
2018-05-07T02:46:44.433Z,14.90
2018-05-07T02:49:11.577Z,14.80
2018-05-07T02:51:37.989Z,14.80
2018-05-07T02:54:04.584Z,14.70
2018-05-07T02:56:30.936Z,14.70
2018-05-07T02:58:57.289Z,14.70
2018-05-07T03:01:23.629Z,14.60
2018-05-07T03:03:50.991Z,14.60
2018-05-07T03:06:17.328Z,14.60
2018-05-07T03:08:43.663Z,14.60
2018-05-07T03:11:09.968Z,14.60
2018-05-07T03:13:36.541Z,14.60
2018-05-07T03:16:03.688Z,14.60
2018-05-07T03:18:30.057Z,14.50
2018-05-07T03:20:56.655Z,14.60
2018-05-07T03:23:23.317Z,14.50
2018-05-07T03:25:49.651Z,14.50
2018-05-07T03:28:16.300Z,14.50
2018-05-07T03:30:42.629Z,14.50
2018-05-07T03:33:09.529Z,14.40
2018-05-07T03:35:35.943Z,14.40
2018-05-07T03:38:03.206Z,14.50
2018-05-07T03:40:29.691Z,14.40
2018-05-07T03:42:56.778Z,14.30
2018-05-07T03:45:23.149Z,14.30
2018-05-07T03:47:50.302Z,14.20
2018-05-07T03:50:17.385Z,14.20
2018-05-07T03:52:43.749Z,14.20
2018-05-07T03:55:10.134Z,14.20
2018-05-07T03:57:36.485Z,14.20
2018-05-07T04:00:02.922Z,14.10
2018-05-07T04:02:29.275Z,14.10
2018-05-07T04:04:55.639Z,14.00
2018-05-07T04:07:22.845Z,13.90
2018-05-07T04:09:49.137Z,13.90
2018-05-07T04:12:15.514Z,13.90
2018-05-07T04:14:42.150Z,13.90
2018-05-07T04:17:20.721Z,13.90
2018-05-07T04:23:01.021Z,13.90
2018-05-07T04:25:27.437Z,13.90
2018-05-07T04:27:53.830Z,13.90
2018-05-07T04:30:20.201Z,13.80
2018-05-07T04:32:46.589Z,13.90
2018-05-07T04:35:13.093Z,13.80
2018-05-07T04:37:39.449Z,13.80
2018-05-07T04:40:05.885Z,13.80
2018-05-07T04:42:33.757Z,13.70
2018-05-07T04:45:00.637Z,13.80
2018-05-07T04:47:27.103Z,13.90
2018-05-07T04:49:53.497Z,13.90
2018-05-07T04:52:19.873Z,13.90
2018-05-07T04:54:46.238Z,14.00
2018-05-07T04:57:12.605Z,14.00
2018-05-07T04:59:39.149Z,14.10
2018-05-07T05:02:05.553Z,14.10
2018-05-07T05:04:32.709Z,14.10
2018-05-07T05:06:59.896Z,14.20
2018-05-07T05:09:26.535Z,14.20
2018-05-07T05:11:52.926Z,14.20
2018-05-07T05:14:19.499Z,14.30
2018-05-07T05:16:45.849Z,14.30
2018-05-07T05:19:12.362Z,14.40
2018-05-07T05:21:39.485Z,14.50
2018-05-07T05:24:05.853Z,14.60
2018-05-07T05:26:33.050Z,14.70
2018-05-07T05:28:59.401Z,14.60
2018-05-07T05:31:25.820Z,14.70
2018-05-07T05:33:52.277Z,14.80
2018-05-07T05:36:18.709Z,14.80
2018-05-07T05:38:45.162Z,14.90
2018-05-07T05:41:11.630Z,15.00
2018-05-07T05:43:38.099Z,15.10
2018-05-07T05:46:04.470Z,15.20
2018-05-07T05:48:30.825Z,15.40
2018-05-07T05:50:57.382Z,15.80
2018-05-07T05:53:23.677Z,16.10
2018-05-07T05:55:50.125Z,16.20
2018-05-07T05:58:16.497Z,16.50
2018-05-07T06:00:42.852Z,16.80
2018-05-07T06:03:09.206Z,17.20
2018-05-07T06:05:35.521Z,17.40
2018-05-07T06:08:02.229Z,17.70
2018-05-07T06:10:29.437Z,18.30
2018-05-07T06:12:55.794Z,18.20
2018-05-07T06:15:22.117Z,18.60
2018-05-07T06:17:48.648Z,18.90
2018-05-07T06:20:15.262Z,19.20
2018-05-07T06:22:41.662Z,19.50
2018-05-07T06:25:08.200Z,19.70
2018-05-07T06:27:34.644Z,19.90
2018-05-07T06:30:01.147Z,19.90
2018-05-07T06:32:27.666Z,20.20
2018-05-07T06:34:54.313Z,20.60
2018-05-07T06:37:21.308Z,21.10
2018-05-07T06:39:47.763Z,21.20
2018-05-07T06:42:14.141Z,21.40
2018-05-07T06:44:40.754Z,21.70
2018-05-07T06:47:07.227Z,22.00
2018-05-07T06:49:33.686Z,22.50
2018-05-07T06:52:00.167Z,22.70
2018-05-07T06:54:26.809Z,22.90
2018-05-07T06:56:53.227Z,23.20
2018-05-07T06:59:19.613Z,23.40
2018-05-07T07:01:45.969Z,23.70
2018-05-07T07:04:12.670Z,24.00
2018-05-07T07:06:39.055Z,24.10
2018-05-07T07:09:05.440Z,24.30
2018-05-07T07:11:31.870Z,24.40
2018-05-07T07:13:58.223Z,24.50
2018-05-07T07:16:24.651Z,24.80
2018-05-07T07:19:06.668Z,25.00
2018-05-07T07:21:33.094Z,25.00
2018-05-07T07:23:59.877Z,25.10
2018-05-07T07:26:26.225Z,25.20
2018-05-07T07:28:52.583Z,25.20
2018-05-07T07:31:18.933Z,25.30
2018-05-07T07:33:45.493Z,25.40
2018-05-07T07:36:11.830Z,25.40
2018-05-07T07:38:38.927Z,25.60
2018-05-07T07:41:05.330Z,25.60
2018-05-07T07:43:32.148Z,25.80
2018-05-07T07:45:58.471Z,25.70
2018-05-07T07:48:24.861Z,25.70
2018-05-07T07:50:51.314Z,25.70
2018-05-07T07:53:17.620Z,25.70
2018-05-07T07:55:44.696Z,25.40
2018-05-07T07:58:11.014Z,25.30
2018-05-07T08:00:37.384Z,25.30
2018-05-07T08:03:03.749Z,25.40
2018-05-07T08:05:30.278Z,25.60
2018-05-07T08:07:56.635Z,25.60
2018-05-07T08:10:22.977Z,25.60
2018-05-07T08:12:49.314Z,25.80
2018-05-07T08:15:15.650Z,26.00
2018-05-07T08:17:42.135Z,26.10
2018-05-07T08:20:08.425Z,26.30
2018-05-07T08:22:34.857Z,26.50
2018-05-07T08:25:01.274Z,26.70
2018-05-07T08:27:27.586Z,26.80
2018-05-07T08:29:53.962Z,26.80
2018-05-07T08:32:20.297Z,26.70
2018-05-07T08:34:46.766Z,27.00
2018-05-07T08:37:13.130Z,27.10
2018-05-07T08:39:40.209Z,27.30
2018-05-07T08:42:06.573Z,27.30
2018-05-07T08:44:33.337Z,27.10
2018-05-07T08:46:59.729Z,27.50
2018-05-07T08:49:26.836Z,27.80
2018-05-07T08:51:53.142Z,27.80
2018-05-07T08:54:19.945Z,27.80
2018-05-07T08:56:46.306Z,27.80
2018-05-07T08:59:12.626Z,27.80
2018-05-07T09:01:39.710Z,28.10
2018-05-07T09:04:06.097Z,28.10
2018-05-07T09:06:33.264Z,28.20
2018-05-07T09:08:59.645Z,28.20
2018-05-07T09:11:25.965Z,28.40
2018-05-07T09:13:52.505Z,28.30
2018-05-07T09:16:18.841Z,28.40
2018-05-07T09:18:45.178Z,28.50
2018-05-07T09:21:11.730Z,28.40
2018-05-07T09:23:38.405Z,28.60
2018-05-07T09:26:04.725Z,28.70
2018-05-07T09:28:31.118Z,28.80
2018-05-07T09:30:57.461Z,28.90
2018-05-07T09:33:23.793Z,29.00
2018-05-07T09:35:50.901Z,29.30
2018-05-07T09:38:17.237Z,29.20
2018-05-07T09:40:43.550Z,29.40
2018-05-07T09:43:09.913Z,29.70
2018-05-07T09:45:36.273Z,29.80
2018-05-07T09:48:03.403Z,30.10
2018-05-07T09:50:29.818Z,30.00
2018-05-07T09:52:56.927Z,30.20
2018-05-07T09:55:23.250Z,30.20
2018-05-07T09:58:03.371Z,30.40
2018-05-07T10:00:33.801Z,30.40
2018-05-07T10:03:00.142Z,30.40
2018-05-07T10:05:27.293Z,30.80
2018-05-07T10:07:54.351Z,30.80
2018-05-07T10:10:22.181Z,30.90
2018-05-07T10:12:48.541Z,30.90
2018-05-07T10:15:14.945Z,31.00
2018-05-07T10:17:41.271Z,31.10
2018-05-07T10:20:07.637Z,31.20
2018-05-07T10:22:34.794Z,31.30
2018-05-07T10:25:02.233Z,31.30
2018-05-07T10:27:28.669Z,31.40
2018-05-07T10:29:55.081Z,31.50
2018-05-07T10:32:22.080Z,31.60
2018-05-07T10:34:48.771Z,31.60
2018-05-07T10:37:15.114Z,31.60
2018-05-07T10:39:41.465Z,31.60
2018-05-07T10:42:08.619Z,31.50
2018-05-07T10:44:35.980Z,31.60
2018-05-07T10:47:02.506Z,31.50
2018-05-07T10:49:28.914Z,31.50
2018-05-07T10:51:55.274Z,31.50
2018-05-07T10:54:21.646Z,31.40
2018-05-07T10:56:48.053Z,31.50
2018-05-07T10:59:14.353Z,31.60
2018-05-07T11:01:56.393Z,31.60
2018-05-07T11:04:22.892Z,31.70
2018-05-07T11:06:49.978Z,32.00
2018-05-07T11:09:16.348Z,32.00
2018-05-07T11:11:42.810Z,32.10
2018-05-07T11:14:09.353Z,32.30
2018-05-07T11:16:36.801Z,32.60
2018-05-07T11:19:03.957Z,32.70
2018-05-07T11:21:30.304Z,32.70
2018-05-07T11:23:56.803Z,32.80
2018-05-07T11:26:23.203Z,32.80
2018-05-07T11:28:49.525Z,32.80
2018-05-07T11:31:15.879Z,32.90
2018-05-07T11:33:42.529Z,32.80
2018-05-07T11:36:08.922Z,32.70
2018-05-07T11:38:35.633Z,32.80
2018-05-07T11:41:02.365Z,32.90
2018-05-07T11:43:28.990Z,33.10
2018-05-07T11:45:56.128Z,33.20
2018-05-07T11:48:22.485Z,33.10
2018-05-07T11:50:48.822Z,33.30
2018-05-07T11:53:16.306Z,33.40
2018-05-07T11:55:42.557Z,33.40
2018-05-07T11:58:09.352Z,33.50
2018-05-07T12:00:36.449Z,33.50
2018-05-07T12:03:02.791Z,33.60
2018-05-07T12:05:29.138Z,33.80
2018-05-07T12:07:55.469Z,33.90
2018-05-07T12:10:21.823Z,34.00
2018-05-07T12:12:48.129Z,34.10
2018-05-07T12:15:14.481Z,34.10
2018-05-07T12:17:41.542Z,34.60
2018-05-07T12:20:07.905Z,34.60
2018-05-07T12:22:34.266Z,34.80
2018-05-07T12:25:00.601Z,34.80
2018-05-07T12:27:26.967Z,35.00
2018-05-07T12:29:53.293Z,35.00
2018-05-07T12:32:19.606Z,35.10
2018-05-07T12:34:46.865Z,35.10
2018-05-07T12:37:13.177Z,35.10
2018-05-07T12:39:39.545Z,35.30
2018-05-07T12:42:06.633Z,35.60
2018-05-07T12:44:33.181Z,35.60
2018-05-07T12:46:59.531Z,35.70
2018-05-07T12:49:25.855Z,35.80
2018-05-07T12:51:52.197Z,35.70
2018-05-07T12:54:19.434Z,35.80
2018-05-07T12:56:45.791Z,35.80
2018-05-07T12:59:12.204Z,35.80
2018-05-07T13:01:39.197Z,36.00
2018-05-07T13:04:05.873Z,36.00
2018-05-07T13:06:33.227Z,35.70
2018-05-07T13:08:59.565Z,35.70
2018-05-07T13:11:25.920Z,35.90
2018-05-07T13:13:52.317Z,36.10
2018-05-07T13:16:18.665Z,36.00
2018-05-07T13:18:44.990Z,36.00
2018-05-07T13:21:11.321Z,36.00
2018-05-07T13:23:37.969Z,35.80
2018-05-07T13:26:04.501Z,35.80
2018-05-07T13:28:30.831Z,35.70
2018-05-07T13:30:57.165Z,35.60
2018-05-07T13:33:23.530Z,35.40
2018-05-07T13:35:49.877Z,35.10
2018-05-07T13:38:16.206Z,34.70
2018-05-07T13:40:42.509Z,34.40
2018-05-07T13:43:09.606Z,34.00
2018-05-07T13:45:35.921Z,34.00
2018-05-07T13:48:02.278Z,33.90
2018-05-07T13:50:28.605Z,33.80
2018-05-07T13:52:54.962Z,33.70
2018-05-07T13:55:21.294Z,33.60
2018-05-07T13:57:47.639Z,33.30
2018-05-07T14:00:14.705Z,32.70
2018-05-07T14:02:41.063Z,32.70
2018-05-07T14:05:07.401Z,32.60
2018-05-07T14:07:34.258Z,32.40
2018-05-07T14:10:00.653Z,32.40
2018-05-07T14:12:27.030Z,32.20
2018-05-07T14:14:53.614Z,32.00
2018-05-07T14:17:20.025Z,31.70
2018-05-07T14:19:47.118Z,31.10
2018-05-07T14:22:13.473Z,31.10
2018-05-07T14:24:40.062Z,30.80
2018-05-07T14:27:06.450Z,30.50
2018-05-07T14:29:32.894Z,30.30
2018-05-07T14:32:00.002Z,29.70
2018-05-07T14:34:26.458Z,29.60
2018-05-07T14:36:52.937Z,29.40
2018-05-07T14:39:19.319Z,29.20
2018-05-07T14:44:27.705Z,28.40
2018-05-07T14:46:54.082Z,28.30
2018-05-07T14:49:20.609Z,28.00
2018-05-07T14:51:46.930Z,27.80
2018-05-07T14:54:14.010Z,27.40
2018-05-07T14:56:40.878Z,27.30
2018-05-07T14:59:07.983Z,27.00
2018-05-07T15:01:34.338Z,27.00
2018-05-07T15:04:00.765Z,26.80
2018-05-07T15:06:27.163Z,26.60
2018-05-07T15:08:53.624Z,26.30
2018-05-07T15:11:19.950Z,26.30
2018-05-07T15:13:47.433Z,26.10
2018-05-07T15:16:13.794Z,26.00
2018-05-07T15:18:40.141Z,26.00
2018-05-07T15:21:06.522Z,25.80
2018-05-07T15:23:33.471Z,25.70
2018-05-07T15:25:59.859Z,25.60
2018-05-07T15:28:26.282Z,25.50
2018-05-07T15:30:52.678Z,25.60
2018-05-07T15:33:19.938Z,25.40
2018-05-07T15:35:47.045Z,25.50
2018-05-07T15:38:13.454Z,25.60
2018-05-07T15:40:39.879Z,25.30
2018-05-07T15:43:06.421Z,25.20
2018-05-07T15:45:32.818Z,25.10
2018-05-07T15:47:59.222Z,25.00
2018-05-07T15:50:25.601Z,24.90
2018-05-07T15:52:52.030Z,24.80
2018-05-07T15:55:18.470Z,24.70
2018-05-07T15:57:44.906Z,24.80
2018-05-07T16:00:11.266Z,24.60
2018-05-07T16:02:37.814Z,24.50
2018-05-07T16:05:04.342Z,24.40
2018-05-07T16:07:30.687Z,24.30
2018-05-07T16:09:57.074Z,24.20
2018-05-07T16:12:23.482Z,23.90
2018-05-07T16:14:50.676Z,23.80
2018-05-07T16:17:17.849Z,23.80
2018-05-07T16:19:44.210Z,23.70
2018-05-07T16:22:11.519Z,23.50
2018-05-07T16:24:38.630Z,23.40
2018-05-07T16:27:05.785Z,23.50
2018-05-07T16:29:32.193Z,23.30
2018-05-07T16:31:58.573Z,23.40
2018-05-07T16:34:24.937Z,23.40
2018-05-07T16:36:51.354Z,23.30
2018-05-07T16:39:17.710Z,23.20
2018-05-07T16:41:44.145Z,23.00
2018-05-07T16:44:11.254Z,22.60
2018-05-07T16:46:38.410Z,22.60
2018-05-07T16:49:04.882Z,22.50
2018-05-07T16:51:31.190Z,22.50
2018-05-07T16:53:57.590Z,22.40
2018-05-07T16:56:24.084Z,22.20
2018-05-07T16:58:50.429Z,22.10
2018-05-07T17:01:17.517Z,21.70
2018-05-07T17:03:43.917Z,21.70
2018-05-07T17:06:10.367Z,21.60
2018-05-07T17:08:37.502Z,21.30
2018-05-07T17:11:04.084Z,21.30
2018-05-07T17:13:30.688Z,21.20
2018-05-07T17:15:57.072Z,21.20
2018-05-07T17:18:23.480Z,21.20
2018-05-07T17:20:50.578Z,21.20
2018-05-07T17:23:17.131Z,21.20
2018-05-07T17:25:43.542Z,21.40
2018-05-07T17:28:10.700Z,21.50
2018-05-07T17:30:37.226Z,21.40
2018-05-07T17:33:03.629Z,21.50
2018-05-07T17:35:30.106Z,21.30
2018-05-07T17:37:56.533Z,21.40
2018-05-07T17:40:23.639Z,21.50
2018-05-07T17:42:50.072Z,21.40
2018-05-07T17:45:31.442Z,21.40
2018-05-07T17:48:09.985Z,21.40
2018-05-07T17:50:36.323Z,21.50
2018-05-07T17:53:02.738Z,21.60
2018-05-07T17:55:29.443Z,21.80
2018-05-07T17:57:55.838Z,21.80
2018-05-07T18:00:22.943Z,21.80
2018-05-07T18:02:49.309Z,21.80
2018-05-07T18:05:15.773Z,21.80
2018-05-07T18:07:42.890Z,21.60
2018-05-07T18:10:10.001Z,21.60
2018-05-07T18:12:36.433Z,21.50
2018-05-07T18:15:02.871Z,21.60
2018-05-07T18:17:29.241Z,21.40
2018-05-07T18:19:55.646Z,21.20
2018-05-07T18:22:22.018Z,21.00
2018-05-07T18:24:49.124Z,20.80
2018-05-07T18:27:15.542Z,20.80
2018-05-07T18:29:41.902Z,20.80
2018-05-07T18:32:08.354Z,20.70
2018-05-07T18:34:34.752Z,20.70
2018-05-07T18:37:01.150Z,20.70
2018-05-07T18:39:27.574Z,20.70
2018-05-07T18:41:53.934Z,20.50
2018-05-07T18:44:20.455Z,20.30
2018-05-07T18:46:46.817Z,20.30
2018-05-07T18:49:13.186Z,20.20
2018-05-07T18:51:40.433Z,20.00
2018-05-07T18:54:07.849Z,20.00
2018-05-07T18:56:34.278Z,20.00
2018-05-07T18:59:00.734Z,20.10
2018-05-07T19:01:27.138Z,19.90
2018-05-07T19:03:53.885Z,19.90
2018-05-07T19:06:20.255Z,19.90
2018-05-07T19:08:46.629Z,19.90
2018-05-07T19:11:13.045Z,20.00
2018-05-07T19:13:45.452Z,20.00
2018-05-07T19:16:11.806Z,19.90
2018-05-07T19:18:38.261Z,20.00
2018-05-07T19:21:05.481Z,20.00
2018-05-07T19:23:32.091Z,19.90
2018-05-07T19:25:58.458Z,19.90
2018-05-07T19:28:24.829Z,19.80
2018-05-07T19:30:51.226Z,20.10
2018-05-07T19:33:17.906Z,20.00
2018-05-07T19:35:45.005Z,20.10
2018-05-07T19:38:11.422Z,20.10
2018-05-07T19:40:37.949Z,20.10
2018-05-07T19:43:04.310Z,19.90
2018-05-07T19:45:30.944Z,19.80
2018-05-07T19:47:57.312Z,19.80
2018-05-07T19:50:24.554Z,19.80
2018-05-07T19:52:50.934Z,19.80
2018-05-07T19:55:17.353Z,19.80
2018-05-07T19:57:43.766Z,19.90
2018-05-07T20:00:11.190Z,19.80
2018-05-07T20:02:37.645Z,19.70
2018-05-07T20:05:04.189Z,19.90
2018-05-07T20:07:31.322Z,19.70
2018-05-07T20:09:57.737Z,19.70
2018-05-07T20:12:24.182Z,19.60
2018-05-07T20:14:50.565Z,19.50
2018-05-07T20:17:16.926Z,19.40
2018-05-07T20:19:43.309Z,19.40
2018-05-07T20:22:10.429Z,19.30
2018-05-07T20:24:36.841Z,19.30
2018-05-07T20:27:03.247Z,19.30
2018-05-07T20:29:29.644Z,19.40
2018-05-07T20:31:56.776Z,19.30
2018-05-07T20:34:23.145Z,19.30
2018-05-07T20:36:49.528Z,19.30
2018-05-07T20:39:16.676Z,19.50
2018-05-07T20:41:43.137Z,19.50
2018-05-07T20:44:10.243Z,19.60
2018-05-07T20:46:36.614Z,19.70
2018-05-07T20:49:03.025Z,19.60
2018-05-07T20:51:29.427Z,19.50
2018-05-07T20:53:55.833Z,19.60
2018-05-07T20:56:22.221Z,19.50
2018-05-07T20:58:48.593Z,19.40
2018-05-07T21:01:15.812Z,19.20
2018-05-07T21:03:56.914Z,19.20
2018-05-07T21:06:24.082Z,19.00
2018-05-07T21:08:50.465Z,19.00
2018-05-07T21:11:16.814Z,18.90
2018-05-07T21:13:43.238Z,18.80
2018-05-07T21:16:09.715Z,18.80
2018-05-07T21:18:36.141Z,18.70
2018-05-07T21:21:02.534Z,18.60
2018-05-07T21:23:29.015Z,18.70
2018-05-07T21:25:55.377Z,18.90
2018-05-07T21:28:21.794Z,18.90
2018-05-07T21:30:48.170Z,18.80
2018-05-07T21:33:14.614Z,18.80
2018-05-07T21:35:41.865Z,18.60
2018-05-07T21:38:08.314Z,18.60
2018-05-07T21:40:34.686Z,18.50
2018-05-07T21:43:01.103Z,18.30
2018-05-07T21:45:27.520Z,18.00
2018-05-07T21:47:53.858Z,18.10
2018-05-07T21:50:20.231Z,18.00
2018-05-07T21:52:46.654Z,18.00
2018-05-07T21:55:13.253Z,18.00
2018-05-07T21:57:39.861Z,18.00
2018-05-07T22:00:06.293Z,17.80
2018-05-07T22:02:32.682Z,17.80
2018-05-07T22:05:00.022Z,17.70
2018-05-07T22:07:26.429Z,17.70
2018-05-07T22:09:53.519Z,17.80
2018-05-07T22:12:19.923Z,17.80
2018-05-07T22:14:46.462Z,17.80
2018-05-07T22:17:12.875Z,17.80
2018-05-07T22:19:40.025Z,17.80
2018-05-07T22:22:06.602Z,17.70
2018-05-07T22:24:33.202Z,17.60
2018-05-07T22:26:59.578Z,17.60
2018-05-07T22:29:25.953Z,17.50
2018-05-07T22:31:52.453Z,17.40
2018-05-07T22:34:19.082Z,17.40
2018-05-07T22:36:45.473Z,17.50
2018-05-07T22:39:11.916Z,17.50
2018-05-07T22:41:38.516Z,17.50
2018-05-07T22:44:10.366Z,17.40
2018-05-07T22:46:36.853Z,17.40
2018-05-07T22:49:03.286Z,17.20
2018-05-07T22:51:30.362Z,17.30
2018-05-07T22:53:56.853Z,17.20
2018-05-07T22:56:23.259Z,17.40
2018-05-07T22:58:49.605Z,17.50
2018-05-07T23:01:16.729Z,17.40
2018-05-07T23:03:43.968Z,17.30
2018-05-07T23:06:10.375Z,17.30
2018-05-07T23:08:36.815Z,17.30
2018-05-07T23:11:03.908Z,17.40
2018-05-07T23:13:30.341Z,17.40
2018-05-07T23:15:56.729Z,17.40
2018-05-07T23:18:23.089Z,17.20
2018-05-07T23:20:49.498Z,17.10
2018-05-07T23:23:15.866Z,16.90
2018-05-07T23:25:42.238Z,16.80
2018-05-07T23:28:08.627Z,17.00
2018-05-07T23:30:34.978Z,16.90
2018-05-07T23:33:02.077Z,16.80
2018-05-07T23:35:28.498Z,16.80
2018-05-07T23:37:54.836Z,16.90
2018-05-07T23:40:21.189Z,16.80
2018-05-07T23:42:47.574Z,16.60
2018-05-07T23:45:13.970Z,16.70
2018-05-07T23:47:40.362Z,16.60
2018-05-07T23:50:06.781Z,16.50
2018-05-07T23:52:33.890Z,16.40
2018-05-07T23:55:00.521Z,16.40
2018-05-07T23:57:26.946Z,16.30
2018-05-07T23:59:53.320Z,16.30
